sensor_id;sensor_type;location;lat;lon;timestamp;P1;durP1;ratioP1;P2;durP2;ratioP2
48881;SDS011;57063;51.406;-2.402;2023-11-21T00:01:06;3.22;;;0.70;;
48881;SDS011;57063;51.406;-2.402;2023-11-21T00:03:33;2.78;;;0.68;;
48881;SDS011;57063;51.406;-2.402;2023-11-21T00:05:59;5.50;;;1.25;;
48881;SDS011;57063;51.406;-2.402;2023-11-21T00:08:25;3.85;;;0.65;;
48881;SDS011;57063;51.406;-2.402;2023-11-21T00:10:50;4.82;;;0.90;;
48881;SDS011;57063;51.406;-2.402;2023-11-21T00:13:16;4.45;;;0.90;;
48881;SDS011;57063;51.406;-2.402;2023-11-21T00:15:41;5.80;;;0.90;;
48881;SDS011;57063;51.406;-2.402;2023-11-21T00:18:07;2.35;;;0.75;;
48881;SDS011;57063;51.406;-2.402;2023-11-21T00:20:32;4.03;;;0.85;;
48881;SDS011;57063;51.406;-2.402;2023-11-21T00:22:57;2.67;;;0.60;;
48881;SDS011;57063;51.406;-2.402;2023-11-21T00:25:24;3.70;;;0.90;;
48881;SDS011;57063;51.406;-2.402;2023-11-21T00:27:50;2.10;;;0.65;;
48881;SDS011;57063;51.406;-2.402;2023-11-21T00:30:15;3.85;;;0.75;;
48881;SDS011;57063;51.406;-2.402;2023-11-21T00:32:40;3.03;;;0.90;;
48881;SDS011;57063;51.406;-2.402;2023-11-21T00:35:06;2.20;;;0.63;;
48881;SDS011;57063;51.406;-2.402;2023-11-21T00:37:32;4.07;;;0.80;;
48881;SDS011;57063;51.406;-2.402;2023-11-21T00:39:57;1.75;;;0.52;;
48881;SDS011;57063;51.406;-2.402;2023-11-21T00:42:23;2.88;;;0.88;;
48881;SDS011;57063;51.406;-2.402;2023-11-21T00:44:48;3.95;;;0.80;;
48881;SDS011;57063;51.406;-2.402;2023-11-21T00:47:14;9.55;;;1.25;;
48881;SDS011;57063;51.406;-2.402;2023-11-21T00:49:39;5.30;;;0.75;;
48881;SDS011;57063;51.406;-2.402;2023-11-21T00:52:05;3.33;;;0.80;;
48881;SDS011;57063;51.406;-2.402;2023-11-21T00:54:30;3.03;;;0.75;;
48881;SDS011;57063;51.406;-2.402;2023-11-21T00:56:56;4.75;;;0.75;;
48881;SDS011;57063;51.406;-2.402;2023-11-21T00:59:21;1.60;;;0.50;;
48881;SDS011;57063;51.406;-2.402;2023-11-21T01:01:48;5.97;;;0.85;;
48881;SDS011;57063;51.406;-2.402;2023-11-21T01:04:13;4.15;;;0.60;;
48881;SDS011;57063;51.406;-2.402;2023-11-21T01:06:38;2.10;;;0.63;;
48881;SDS011;57063;51.406;-2.402;2023-11-21T01:09:04;3.72;;;0.80;;
48881;SDS011;57063;51.406;-2.402;2023-11-21T01:11:34;2.92;;;0.70;;
48881;SDS011;57063;51.406;-2.402;2023-11-21T01:14:02;3.25;;;1.00;;
48881;SDS011;57063;51.406;-2.402;2023-11-21T01:16:28;4.30;;;2.25;;
48881;SDS011;57063;51.406;-2.402;2023-11-21T01:18:54;9.57;;;1.02;;
48881;SDS011;57063;51.406;-2.402;2023-11-21T01:21:19;6.45;;;0.98;;
48881;SDS011;57063;51.406;-2.402;2023-11-21T01:23:44;4.50;;;0.68;;
48881;SDS011;57063;51.406;-2.402;2023-11-21T01:26:10;4.60;;;1.13;;
48881;SDS011;57063;51.406;-2.402;2023-11-21T01:28:35;2.72;;;0.65;;
48881;SDS011;57063;51.406;-2.402;2023-11-21T01:31:00;2.70;;;0.60;;
48881;SDS011;57063;51.406;-2.402;2023-11-21T01:33:26;1.85;;;0.75;;
48881;SDS011;57063;51.406;-2.402;2023-11-21T01:35:51;4.03;;;0.65;;
48881;SDS011;57063;51.406;-2.402;2023-11-21T01:38:19;5.50;;;0.68;;
48881;SDS011;57063;51.406;-2.402;2023-11-21T01:40:45;3.20;;;0.90;;
48881;SDS011;57063;51.406;-2.402;2023-11-21T01:43:10;3.40;;;0.65;;
48881;SDS011;57063;51.406;-2.402;2023-11-21T01:45:36;3.20;;;0.90;;
48881;SDS011;57063;51.406;-2.402;2023-11-21T01:48:01;2.08;;;0.50;;
48881;SDS011;57063;51.406;-2.402;2023-11-21T01:50:28;1.80;;;0.47;;
48881;SDS011;57063;51.406;-2.402;2023-11-21T01:52:54;1.00;;;0.60;;
48881;SDS011;57063;51.406;-2.402;2023-11-21T01:55:19;3.63;;;0.68;;
48881;SDS011;57063;51.406;-2.402;2023-11-21T01:57:45;5.15;;;0.73;;
48881;SDS011;57063;51.406;-2.402;2023-11-21T02:00:11;2.58;;;0.63;;
48881;SDS011;57063;51.406;-2.402;2023-11-21T02:02:43;1.08;;;0.50;;
48881;SDS011;57063;51.406;-2.402;2023-11-21T02:05:16;1.40;;;0.75;;
48881;SDS011;57063;51.406;-2.402;2023-11-21T02:07:43;2.58;;;1.15;;
48881;SDS011;57063;51.406;-2.402;2023-11-21T02:10:09;1.60;;;0.82;;
48881;SDS011;57063;51.406;-2.402;2023-11-21T02:12:35;3.35;;;1.33;;
48881;SDS011;57063;51.406;-2.402;2023-11-21T02:15:01;3.53;;;1.10;;
48881;SDS011;57063;51.406;-2.402;2023-11-21T02:17:34;3.58;;;1.15;;
48881;SDS011;57063;51.406;-2.402;2023-11-21T02:20:00;3.60;;;1.27;;
48881;SDS011;57063;51.406;-2.402;2023-11-21T02:22:26;2.35;;;1.30;;
48881;SDS011;57063;51.406;-2.402;2023-11-21T02:24:57;4.85;;;2.45;;
48881;SDS011;57063;51.406;-2.402;2023-11-21T02:27:23;2.05;;;1.20;;
48881;SDS011;57063;51.406;-2.402;2023-11-21T02:29:49;3.83;;;1.50;;
48881;SDS011;57063;51.406;-2.402;2023-11-21T02:32:14;3.88;;;1.50;;
48881;SDS011;57063;51.406;-2.402;2023-11-21T02:34:42;2.42;;;1.60;;
48881;SDS011;57063;51.406;-2.402;2023-11-21T02:37:08;3.10;;;2.03;;
48881;SDS011;57063;51.406;-2.402;2023-11-21T02:39:34;4.28;;;2.38;;
48881;SDS011;57063;51.406;-2.402;2023-11-21T02:41:59;4.57;;;2.13;;
48881;SDS011;57063;51.406;-2.402;2023-11-21T02:44:24;3.80;;;2.17;;
48881;SDS011;57063;51.406;-2.402;2023-11-21T02:46:51;4.28;;;2.40;;
48881;SDS011;57063;51.406;-2.402;2023-11-21T02:49:16;7.63;;;2.42;;
48881;SDS011;57063;51.406;-2.402;2023-11-21T02:51:42;4.03;;;2.42;;
48881;SDS011;57063;51.406;-2.402;2023-11-21T02:54:07;5.07;;;2.20;;
48881;SDS011;57063;51.406;-2.402;2023-11-21T02:56:33;3.03;;;2.40;;
48881;SDS011;57063;51.406;-2.402;2023-11-21T02:58:59;5.03;;;2.53;;
48881;SDS011;57063;51.406;-2.402;2023-11-21T03:01:25;5.60;;;2.38;;
48881;SDS011;57063;51.406;-2.402;2023-11-21T03:03:52;4.13;;;2.65;;
48881;SDS011;57063;51.406;-2.402;2023-11-21T03:06:18;5.70;;;2.80;;
48881;SDS011;57063;51.406;-2.402;2023-11-21T03:08:46;5.25;;;2.83;;
48881;SDS011;57063;51.406;-2.402;2023-11-21T03:11:12;4.72;;;3.38;;
48881;SDS011;57063;51.406;-2.402;2023-11-21T03:13:41;4.78;;;3.15;;
48881;SDS011;57063;51.406;-2.402;2023-11-21T03:16:08;6.13;;;3.13;;
48881;SDS011;57063;51.406;-2.402;2023-11-21T03:18:37;4.95;;;2.70;;
48881;SDS011;57063;51.406;-2.402;2023-11-21T03:21:03;5.30;;;3.67;;
48881;SDS011;57063;51.406;-2.402;2023-11-21T03:23:29;11.23;;;5.30;;
48881;SDS011;57063;51.406;-2.402;2023-11-21T03:25:55;7.40;;;3.60;;
48881;SDS011;57063;51.406;-2.402;2023-11-21T03:28:20;5.20;;;3.50;;
48881;SDS011;57063;51.406;-2.402;2023-11-21T03:30:45;8.02;;;3.85;;
48881;SDS011;57063;51.406;-2.402;2023-11-21T03:33:11;9.95;;;3.75;;
48881;SDS011;57063;51.406;-2.402;2023-11-21T03:35:37;6.38;;;3.90;;
48881;SDS011;57063;51.406;-2.402;2023-11-21T03:38:02;5.88;;;3.60;;
48881;SDS011;57063;51.406;-2.402;2023-11-21T03:40:28;7.75;;;3.50;;
48881;SDS011;57063;51.406;-2.402;2023-11-21T03:42:53;4.32;;;3.40;;
48881;SDS011;57063;51.406;-2.402;2023-11-21T03:45:18;3.33;;;2.80;;
48881;SDS011;57063;51.406;-2.402;2023-11-21T03:47:44;4.90;;;2.63;;
48881;SDS011;57063;51.406;-2.402;2023-11-21T03:50:09;3.58;;;2.83;;
48881;SDS011;57063;51.406;-2.402;2023-11-21T03:52:35;5.10;;;2.72;;
48881;SDS011;57063;51.406;-2.402;2023-11-21T03:55:01;10.45;;;3.80;;
48881;SDS011;57063;51.406;-2.402;2023-11-21T03:57:27;5.72;;;3.75;;
48881;SDS011;57063;51.406;-2.402;2023-11-21T03:59:53;4.13;;;3.72;;
48881;SDS011;57063;51.406;-2.402;2023-11-21T04:02:18;4.40;;;3.78;;
48881;SDS011;57063;51.406;-2.402;2023-11-21T04:04:44;4.85;;;3.92;;
48881;SDS011;57063;51.406;-2.402;2023-11-21T04:07:09;4.90;;;4.28;;
48881;SDS011;57063;51.406;-2.402;2023-11-21T04:09:36;7.25;;;5.75;;
48881;SDS011;57063;51.406;-2.402;2023-11-21T04:12:01;5.82;;;5.05;;
48881;SDS011;57063;51.406;-2.402;2023-11-21T04:14:27;6.80;;;5.25;;
48881;SDS011;57063;51.406;-2.402;2023-11-21T04:16:52;9.75;;;6.60;;
48881;SDS011;57063;51.406;-2.402;2023-11-21T04:19:18;8.13;;;6.07;;
48881;SDS011;57063;51.406;-2.402;2023-11-21T04:21:44;7.70;;;5.95;;
48881;SDS011;57063;51.406;-2.402;2023-11-21T04:24:10;6.25;;;5.63;;
48881;SDS011;57063;51.406;-2.402;2023-11-21T04:26:35;7.63;;;5.47;;
48881;SDS011;57063;51.406;-2.402;2023-11-21T04:29:01;6.20;;;5.00;;
48881;SDS011;57063;51.406;-2.402;2023-11-21T04:31:26;7.50;;;6.25;;
48881;SDS011;57063;51.406;-2.402;2023-11-21T04:33:52;6.82;;;5.03;;
48881;SDS011;57063;51.406;-2.402;2023-11-21T04:36:17;5.18;;;4.43;;
48881;SDS011;57063;51.406;-2.402;2023-11-21T04:38:42;8.05;;;4.50;;
48881;SDS011;57063;51.406;-2.402;2023-11-21T04:41:09;3.78;;;3.42;;
48881;SDS011;57063;51.406;-2.402;2023-11-21T04:43:34;3.75;;;3.28;;
48881;SDS011;57063;51.406;-2.402;2023-11-21T04:45:59;3.25;;;2.67;;
48881;SDS011;57063;51.406;-2.402;2023-11-21T04:48:27;3.55;;;2.50;;
48881;SDS011;57063;51.406;-2.402;2023-11-21T04:50:52;3.83;;;2.40;;
48881;SDS011;57063;51.406;-2.402;2023-11-21T04:53:17;2.83;;;2.30;;
48881;SDS011;57063;51.406;-2.402;2023-11-21T04:55:43;2.78;;;1.95;;
48881;SDS011;57063;51.406;-2.402;2023-11-21T04:58:09;2.33;;;1.75;;
48881;SDS011;57063;51.406;-2.402;2023-11-21T05:00:34;2.05;;;1.25;;
48881;SDS011;57063;51.406;-2.402;2023-11-21T05:03:01;1.63;;;1.20;;
48881;SDS011;57063;51.406;-2.402;2023-11-21T05:05:27;1.67;;;1.10;;
48881;SDS011;57063;51.406;-2.402;2023-11-21T05:07:52;1.90;;;1.10;;
48881;SDS011;57063;51.406;-2.402;2023-11-21T05:10:18;1.45;;;0.90;;
48881;SDS011;57063;51.406;-2.402;2023-11-21T05:12:44;1.00;;;0.73;;
48881;SDS011;57063;51.406;-2.402;2023-11-21T05:15:09;1.77;;;0.77;;
48881;SDS011;57063;51.406;-2.402;2023-11-21T05:17:39;0.80;;;0.77;;
48881;SDS011;57063;51.406;-2.402;2023-11-21T05:20:09;0.55;;;0.45;;
48881;SDS011;57063;51.406;-2.402;2023-11-21T05:22:37;1.00;;;0.70;;
48881;SDS011;57063;51.406;-2.402;2023-11-21T05:25:03;1.10;;;0.65;;
48881;SDS011;57063;51.406;-2.402;2023-11-21T05:27:31;3.67;;;1.05;;
48881;SDS011;57063;51.406;-2.402;2023-11-21T05:29:56;0.85;;;0.68;;
48881;SDS011;57063;51.406;-2.402;2023-11-21T05:32:22;0.90;;;0.70;;
48881;SDS011;57063;51.406;-2.402;2023-11-21T05:34:49;1.25;;;0.65;;
48881;SDS011;57063;51.406;-2.402;2023-11-21T05:37:14;0.82;;;0.60;;
48881;SDS011;57063;51.406;-2.402;2023-11-21T05:39:39;0.60;;;0.60;;
48881;SDS011;57063;51.406;-2.402;2023-11-21T05:42:05;0.95;;;0.60;;
48881;SDS011;57063;51.406;-2.402;2023-11-21T05:44:31;2.20;;;0.85;;
48881;SDS011;57063;51.406;-2.402;2023-11-21T05:46:56;1.48;;;0.70;;
48881;SDS011;57063;51.406;-2.402;2023-11-21T05:49:23;1.88;;;0.65;;
48881;SDS011;57063;51.406;-2.402;2023-11-21T05:51:51;1.45;;;0.68;;
48881;SDS011;57063;51.406;-2.402;2023-11-21T05:54:19;1.10;;;1.00;;
48881;SDS011;57063;51.406;-2.402;2023-11-21T05:56:44;2.55;;;1.23;;
48881;SDS011;57063;51.406;-2.402;2023-11-21T05:59:09;1.92;;;1.10;;
48881;SDS011;57063;51.406;-2.402;2023-11-21T06:01:35;1.77;;;1.10;;
48881;SDS011;57063;51.406;-2.402;2023-11-21T06:04:03;1.35;;;0.75;;
48881;SDS011;57063;51.406;-2.402;2023-11-21T06:06:29;3.17;;;0.85;;
48881;SDS011;57063;51.406;-2.402;2023-11-21T06:08:54;1.80;;;0.88;;
48881;SDS011;57063;51.406;-2.402;2023-11-21T06:11:20;3.33;;;0.90;;
48881;SDS011;57063;51.406;-2.402;2023-11-21T06:13:45;1.80;;;1.08;;
48881;SDS011;57063;51.406;-2.402;2023-11-21T06:16:11;1.17;;;0.63;;
48881;SDS011;57063;51.406;-2.402;2023-11-21T06:18:39;1.85;;;0.80;;
48881;SDS011;57063;51.406;-2.402;2023-11-21T06:21:05;2.08;;;0.73;;
48881;SDS011;57063;51.406;-2.402;2023-11-21T06:23:31;0.95;;;0.70;;
48881;SDS011;57063;51.406;-2.402;2023-11-21T06:25:56;1.65;;;0.70;;
48881;SDS011;57063;51.406;-2.402;2023-11-21T06:28:22;1.95;;;0.80;;
48881;SDS011;57063;51.406;-2.402;2023-11-21T06:30:47;0.75;;;0.75;;
48881;SDS011;57063;51.406;-2.402;2023-11-21T06:33:14;3.17;;;0.75;;
48881;SDS011;57063;51.406;-2.402;2023-11-21T06:35:39;4.63;;;0.70;;
48881;SDS011;57063;51.406;-2.402;2023-11-21T06:38:05;2.33;;;0.93;;
48881;SDS011;57063;51.406;-2.402;2023-11-21T06:40:30;5.70;;;0.68;;
48881;SDS011;57063;51.406;-2.402;2023-11-21T06:42:56;1.45;;;0.52;;
48881;SDS011;57063;51.406;-2.402;2023-11-21T06:45:23;1.38;;;0.57;;
48881;SDS011;57063;51.406;-2.402;2023-11-21T06:47:49;0.47;;;0.40;;
48881;SDS011;57063;51.406;-2.402;2023-11-21T06:50:14;1.88;;;0.43;;
48881;SDS011;57063;51.406;-2.402;2023-11-21T06:52:39;2.08;;;0.40;;
48881;SDS011;57063;51.406;-2.402;2023-11-21T06:55:05;2.75;;;0.50;;
48881;SDS011;57063;51.406;-2.402;2023-11-21T06:57:33;0.57;;;0.30;;
48881;SDS011;57063;51.406;-2.402;2023-11-21T06:59:58;2.85;;;0.60;;
48881;SDS011;57063;51.406;-2.402;2023-11-21T07:02:24;1.98;;;0.50;;
48881;SDS011;57063;51.406;-2.402;2023-11-21T07:04:49;0.70;;;0.40;;
48881;SDS011;57063;51.406;-2.402;2023-11-21T07:07:15;0.85;;;0.40;;
48881;SDS011;57063;51.406;-2.402;2023-11-21T07:09:40;1.48;;;0.40;;
48881;SDS011;57063;51.406;-2.402;2023-11-21T07:12:06;0.95;;;0.50;;
48881;SDS011;57063;51.406;-2.402;2023-11-21T07:14:33;1.80;;;0.40;;
48881;SDS011;57063;51.406;-2.402;2023-11-21T07:16:59;2.85;;;0.38;;
48881;SDS011;57063;51.406;-2.402;2023-11-21T07:19:24;1.02;;;0.50;;
48881;SDS011;57063;51.406;-2.402;2023-11-21T07:21:50;1.00;;;0.40;;
48881;SDS011;57063;51.406;-2.402;2023-11-21T07:24:18;1.95;;;0.68;;
48881;SDS011;57063;51.406;-2.402;2023-11-21T07:26:43;2.65;;;0.85;;
48881;SDS011;57063;51.406;-2.402;2023-11-21T07:29:09;2.25;;;0.75;;
48881;SDS011;57063;51.406;-2.402;2023-11-21T07:31:36;2.65;;;0.93;;
48881;SDS011;57063;51.406;-2.402;2023-11-21T07:34:03;1.55;;;1.20;;
48881;SDS011;57063;51.406;-2.402;2023-11-21T07:36:28;2.22;;;1.20;;
48881;SDS011;57063;51.406;-2.402;2023-11-21T07:38:54;2.25;;;0.88;;
48881;SDS011;57063;51.406;-2.402;2023-11-21T07:41:19;1.67;;;0.93;;
48881;SDS011;57063;51.406;-2.402;2023-11-21T07:43:45;2.72;;;1.08;;
48881;SDS011;57063;51.406;-2.402;2023-11-21T07:46:11;1.55;;;0.80;;
48881;SDS011;57063;51.406;-2.402;2023-11-21T07:48:37;2.13;;;0.73;;
48881;SDS011;57063;51.406;-2.402;2023-11-21T07:51:03;4.13;;;0.80;;
48881;SDS011;57063;51.406;-2.402;2023-11-21T07:53:29;1.42;;;0.82;;
48881;SDS011;57063;51.406;-2.402;2023-11-21T07:55:55;1.88;;;0.65;;
48881;SDS011;57063;51.406;-2.402;2023-11-21T07:58:23;1.92;;;0.85;;
48881;SDS011;57063;51.406;-2.402;2023-11-21T08:00:49;1.20;;;0.43;;
48881;SDS011;57063;51.406;-2.402;2023-11-21T08:03:15;0.80;;;0.43;;
48881;SDS011;57063;51.406;-2.402;2023-11-21T08:05:41;2.25;;;0.60;;
48881;SDS011;57063;51.406;-2.402;2023-11-21T08:08:06;1.20;;;0.50;;
48881;SDS011;57063;51.406;-2.402;2023-11-21T08:10:32;4.88;;;1.00;;
48881;SDS011;57063;51.406;-2.402;2023-11-21T08:12:58;2.25;;;0.60;;
48881;SDS011;57063;51.406;-2.402;2023-11-21T08:15:23;5.35;;;0.50;;
48881;SDS011;57063;51.406;-2.402;2023-11-21T08:17:49;1.73;;;0.98;;
48881;SDS011;57063;51.406;-2.402;2023-11-21T08:20:14;1.70;;;0.40;;
48881;SDS011;57063;51.406;-2.402;2023-11-21T08:22:41;1.25;;;0.40;;
48881;SDS011;57063;51.406;-2.402;2023-11-21T08:25:09;2.47;;;0.40;;
48881;SDS011;57063;51.406;-2.402;2023-11-21T08:27:35;5.35;;;0.32;;
48881;SDS011;57063;51.406;-2.402;2023-11-21T08:30:00;1.63;;;0.32;;
48881;SDS011;57063;51.406;-2.402;2023-11-21T08:32:27;1.30;;;0.30;;
48881;SDS011;57063;51.406;-2.402;2023-11-21T08:34:53;1.52;;;0.40;;
48881;SDS011;57063;51.406;-2.402;2023-11-21T08:37:18;3.20;;;0.40;;
48881;SDS011;57063;51.406;-2.402;2023-11-21T08:39:44;1.23;;;0.40;;
48881;SDS011;57063;51.406;-2.402;2023-11-21T08:42:09;1.30;;;0.35;;
48881;SDS011;57063;51.406;-2.402;2023-11-21T08:44:35;3.88;;;0.30;;
48881;SDS011;57063;51.406;-2.402;2023-11-21T08:47:00;1.63;;;0.50;;
48881;SDS011;57063;51.406;-2.402;2023-11-21T08:49:25;1.40;;;0.38;;
48881;SDS011;57063;51.406;-2.402;2023-11-21T08:51:55;3.90;;;0.40;;
48881;SDS011;57063;51.406;-2.402;2023-11-21T08:54:20;2.97;;;0.65;;
48881;SDS011;57063;51.406;-2.402;2023-11-21T08:56:46;1.42;;;0.40;;
48881;SDS011;57063;51.406;-2.402;2023-11-21T08:59:11;0.95;;;0.20;;
48881;SDS011;57063;51.406;-2.402;2023-11-21T09:01:39;1.38;;;0.22;;
48881;SDS011;57063;51.406;-2.402;2023-11-21T09:04:04;5.35;;;0.32;;
48881;SDS011;57063;51.406;-2.402;2023-11-21T09:06:30;0.98;;;0.30;;
48881;SDS011;57063;51.406;-2.402;2023-11-21T09:08:55;1.67;;;0.50;;
48881;SDS011;57063;51.406;-2.402;2023-11-21T09:11:21;1.98;;;0.50;;
48881;SDS011;57063;51.406;-2.402;2023-11-21T09:13:46;2.90;;;0.32;;
48881;SDS011;57063;51.406;-2.402;2023-11-21T09:16:12;3.30;;;0.57;;
48881;SDS011;57063;51.406;-2.402;2023-11-21T09:18:38;1.23;;;0.30;;
48881;SDS011;57063;51.406;-2.402;2023-11-21T09:21:04;2.95;;;0.40;;
48881;SDS011;57063;51.406;-2.402;2023-11-21T09:23:30;5.05;;;0.50;;
48881;SDS011;57063;51.406;-2.402;2023-11-21T09:25:55;1.70;;;0.20;;
48881;SDS011;57063;51.406;-2.402;2023-11-21T09:28:22;4.53;;;0.70;;
48881;SDS011;57063;51.406;-2.402;2023-11-21T09:30:47;0.52;;;0.30;;
48881;SDS011;57063;51.406;-2.402;2023-11-21T09:33:15;2.28;;;0.65;;
48881;SDS011;57063;51.406;-2.402;2023-11-21T09:35:40;1.70;;;0.47;;
48881;SDS011;57063;51.406;-2.402;2023-11-21T09:38:05;5.25;;;0.85;;
48881;SDS011;57063;51.406;-2.402;2023-11-21T09:40:35;2.28;;;0.70;;
48881;SDS011;57063;51.406;-2.402;2023-11-21T09:43:02;4.25;;;0.50;;
48881;SDS011;57063;51.406;-2.402;2023-11-21T09:45:40;1.73;;;0.50;;
48881;SDS011;57063;51.406;-2.402;2023-11-21T09:48:10;1.17;;;0.40;;
48881;SDS011;57063;51.406;-2.402;2023-11-21T09:50:36;2.67;;;0.70;;
48881;SDS011;57063;51.406;-2.402;2023-11-21T09:53:21;1.75;;;0.47;;
48881;SDS011;57063;51.406;-2.402;2023-11-21T09:55:50;2.63;;;0.40;;
48881;SDS011;57063;51.406;-2.402;2023-11-21T09:58:17;1.15;;;0.98;;
48881;SDS011;57063;51.406;-2.402;2023-11-21T10:00:47;3.50;;;0.82;;
48881;SDS011;57063;51.406;-2.402;2023-11-21T10:03:14;3.90;;;0.50;;
48881;SDS011;57063;51.406;-2.402;2023-11-21T10:05:44;2.92;;;0.70;;
48881;SDS011;57063;51.406;-2.402;2023-11-21T10:08:13;4.10;;;0.60;;
48881;SDS011;57063;51.406;-2.402;2023-11-21T10:10:42;1.90;;;0.82;;
48881;SDS011;57063;51.406;-2.402;2023-11-21T10:13:13;3.13;;;0.55;;
48881;SDS011;57063;51.406;-2.402;2023-11-21T10:15:41;5.57;;;0.82;;
48881;SDS011;57063;51.406;-2.402;2023-11-21T10:18:13;3.38;;;1.02;;
48881;SDS011;57063;51.406;-2.402;2023-11-21T10:20:40;2.22;;;0.70;;
48881;SDS011;57063;51.406;-2.402;2023-11-21T10:23:06;5.22;;;1.00;;
48881;SDS011;57063;51.406;-2.402;2023-11-21T10:25:36;3.03;;;0.60;;
48881;SDS011;57063;51.406;-2.402;2023-11-21T10:28:02;2.30;;;0.82;;
48881;SDS011;57063;51.406;-2.402;2023-11-21T10:30:32;3.08;;;0.70;;
48881;SDS011;57063;51.406;-2.402;2023-11-21T10:33:01;4.15;;;0.90;;
48881;SDS011;57063;51.406;-2.402;2023-11-21T10:40:49;3.58;;;1.20;;
48881;SDS011;57063;51.406;-2.402;2023-11-21T10:43:15;2.28;;;0.75;;
48881;SDS011;57063;51.406;-2.402;2023-11-21T10:45:41;1.38;;;0.52;;
48881;SDS011;57063;51.406;-2.402;2023-11-21T10:48:08;2.60;;;0.70;;
48881;SDS011;57063;51.406;-2.402;2023-11-21T10:50:41;2.60;;;0.60;;
48881;SDS011;57063;51.406;-2.402;2023-11-21T10:53:07;2.65;;;0.90;;
48881;SDS011;57063;51.406;-2.402;2023-11-21T10:55:33;2.33;;;0.77;;
48881;SDS011;57063;51.406;-2.402;2023-11-21T10:58:00;1.40;;;0.98;;
48881;SDS011;57063;51.406;-2.402;2023-11-21T11:00:28;1.42;;;0.75;;
48881;SDS011;57063;51.406;-2.402;2023-11-21T11:02:55;3.00;;;0.93;;
48881;SDS011;57063;51.406;-2.402;2023-11-21T11:05:21;3.97;;;1.10;;
48881;SDS011;57063;51.406;-2.402;2023-11-21T11:07:50;4.50;;;1.00;;
48881;SDS011;57063;51.406;-2.402;2023-11-21T11:10:20;4.17;;;1.00;;
48881;SDS011;57063;51.406;-2.402;2023-11-21T11:12:47;2.13;;;0.98;;
48881;SDS011;57063;51.406;-2.402;2023-11-21T11:15:15;2.28;;;0.82;;
48881;SDS011;57063;51.406;-2.402;2023-11-21T11:17:41;4.90;;;1.00;;
48881;SDS011;57063;51.406;-2.402;2023-11-21T11:20:09;1.38;;;0.75;;
48881;SDS011;57063;51.406;-2.402;2023-11-21T11:22:42;3.17;;;0.90;;
48881;SDS011;57063;51.406;-2.402;2023-11-21T11:28:14;1.55;;;1.00;;
48881;SDS011;57063;51.406;-2.402;2023-11-21T11:30:57;3.28;;;0.88;;
48881;SDS011;57063;51.406;-2.402;2023-11-21T11:33:48;1.83;;;0.93;;
48881;SDS011;57063;51.406;-2.402;2023-11-21T11:36:22;4.90;;;0.98;;
48881;SDS011;57063;51.406;-2.402;2023-11-21T11:38:54;1.52;;;0.75;;
48881;SDS011;57063;51.406;-2.402;2023-11-21T11:41:27;2.70;;;0.88;;
48881;SDS011;57063;51.406;-2.402;2023-11-21T11:43:57;7.13;;;1.30;;
48881;SDS011;57063;51.406;-2.402;2023-11-21T11:49:27;1.88;;;1.40;;
48881;SDS011;57063;51.406;-2.402;2023-11-21T11:55:17;2.80;;;1.67;;
48881;SDS011;57063;51.406;-2.402;2023-11-21T11:57:44;1.75;;;0.70;;
48881;SDS011;57063;51.406;-2.402;2023-11-21T12:00:18;5.55;;;0.90;;
48881;SDS011;57063;51.406;-2.402;2023-11-21T12:02:51;4.15;;;1.00;;
48881;SDS011;57063;51.406;-2.402;2023-11-21T12:05:18;8.88;;;1.08;;
48881;SDS011;57063;51.406;-2.402;2023-11-21T12:07:45;4.60;;;0.90;;
48881;SDS011;57063;51.406;-2.402;2023-11-21T12:10:19;2.60;;;0.70;;
48881;SDS011;57063;51.406;-2.402;2023-11-21T12:12:49;3.22;;;0.80;;
48881;SDS011;57063;51.406;-2.402;2023-11-21T12:15:17;4.25;;;0.70;;
48881;SDS011;57063;51.406;-2.402;2023-11-21T12:17:43;1.45;;;0.70;;
48881;SDS011;57063;51.406;-2.402;2023-11-21T12:20:10;2.75;;;0.90;;
48881;SDS011;57063;51.406;-2.402;2023-11-21T12:25:13;1.08;;;0.50;;
48881;SDS011;57063;51.406;-2.402;2023-11-21T12:27:43;1.60;;;0.50;;
48881;SDS011;57063;51.406;-2.402;2023-11-21T12:30:10;1.40;;;0.52;;
48881;SDS011;57063;51.406;-2.402;2023-11-21T12:32:42;4.13;;;0.90;;
48881;SDS011;57063;51.406;-2.402;2023-11-21T12:35:12;2.45;;;0.90;;
48881;SDS011;57063;51.406;-2.402;2023-11-21T12:37:38;1.75;;;0.60;;
48881;SDS011;57063;51.406;-2.402;2023-11-21T12:40:06;3.53;;;0.70;;
48881;SDS011;57063;51.406;-2.402;2023-11-21T12:42:33;1.80;;;0.80;;
48881;SDS011;57063;51.406;-2.402;2023-11-21T12:45:09;6.47;;;0.77;;
48881;SDS011;57063;51.406;-2.402;2023-11-21T12:47:43;2.40;;;0.88;;
48881;SDS011;57063;51.406;-2.402;2023-11-21T12:50:12;2.83;;;0.85;;
48881;SDS011;57063;51.406;-2.402;2023-11-21T12:52:50;2.95;;;0.77;;
48881;SDS011;57063;51.406;-2.402;2023-11-21T12:55:17;1.23;;;0.50;;
48881;SDS011;57063;51.406;-2.402;2023-11-21T12:57:43;0.73;;;0.60;;
48881;SDS011;57063;51.406;-2.402;2023-11-21T13:00:31;3.30;;;0.77;;
48881;SDS011;57063;51.406;-2.402;2023-11-21T13:02:58;2.47;;;0.70;;
48881;SDS011;57063;51.406;-2.402;2023-11-21T13:07:51;2.25;;;1.08;;
48881;SDS011;57063;51.406;-2.402;2023-11-21T13:10:19;4.78;;;1.05;;
48881;SDS011;57063;51.406;-2.402;2023-11-21T13:12:55;2.50;;;0.90;;
48881;SDS011;57063;51.406;-2.402;2023-11-21T13:15:23;3.50;;;1.35;;
48881;SDS011;57063;51.406;-2.402;2023-11-21T13:17:49;6.03;;;1.10;;
48881;SDS011;57063;51.406;-2.402;2023-11-21T13:20:16;3.00;;;1.00;;
48881;SDS011;57063;51.406;-2.402;2023-11-21T13:22:55;2.17;;;1.02;;
48881;SDS011;57063;51.406;-2.402;2023-11-21T13:25:26;5.97;;;1.27;;
48881;SDS011;57063;51.406;-2.402;2023-11-21T13:27:55;5.20;;;1.45;;
48881;SDS011;57063;51.406;-2.402;2023-11-21T13:30:21;5.88;;;1.00;;
48881;SDS011;57063;51.406;-2.402;2023-11-21T13:32:51;4.90;;;1.10;;
48881;SDS011;57063;51.406;-2.402;2023-11-21T13:35:17;2.30;;;0.90;;
48881;SDS011;57063;51.406;-2.402;2023-11-21T13:37:49;1.37;;;0.73;;
48881;SDS011;57063;51.406;-2.402;2023-11-21T13:40:19;2.88;;;1.00;;
48881;SDS011;57063;51.406;-2.402;2023-11-21T13:42:47;3.47;;;1.40;;
48881;SDS011;57063;51.406;-2.402;2023-11-21T13:45:14;3.17;;;0.95;;
48881;SDS011;57063;51.406;-2.402;2023-11-21T13:47:39;2.92;;;1.10;;
48881;SDS011;57063;51.406;-2.402;2023-11-21T13:50:05;2.88;;;1.00;;
48881;SDS011;57063;51.406;-2.402;2023-11-21T13:52:39;3.40;;;1.17;;
48881;SDS011;57063;51.406;-2.402;2023-11-21T13:55:04;1.15;;;0.70;;
48881;SDS011;57063;51.406;-2.402;2023-11-21T13:57:36;7.15;;;1.33;;
48881;SDS011;57063;51.406;-2.402;2023-11-21T14:00:03;1.05;;;0.63;;
48881;SDS011;57063;51.406;-2.402;2023-11-21T14:02:35;3.33;;;1.33;;
48881;SDS011;57063;51.406;-2.402;2023-11-21T14:05:07;1.90;;;0.90;;
48881;SDS011;57063;51.406;-2.402;2023-11-21T14:07:34;1.88;;;1.02;;
48881;SDS011;57063;51.406;-2.402;2023-11-21T14:10:04;3.88;;;1.13;;
48881;SDS011;57063;51.406;-2.402;2023-11-21T14:12:33;2.80;;;1.05;;
48881;SDS011;57063;51.406;-2.402;2023-11-21T14:15:01;3.83;;;1.00;;
48881;SDS011;57063;51.406;-2.402;2023-11-21T14:17:30;2.08;;;1.02;;
48881;SDS011;57063;51.406;-2.402;2023-11-21T14:19:55;3.35;;;0.98;;
48881;SDS011;57063;51.406;-2.402;2023-11-21T14:22:21;4.53;;;1.27;;
48881;SDS011;57063;51.406;-2.402;2023-11-21T14:24:46;7.80;;;1.75;;
48881;SDS011;57063;51.406;-2.402;2023-11-21T14:27:12;3.30;;;1.40;;
48881;SDS011;57063;51.406;-2.402;2023-11-21T14:29:39;4.35;;;1.02;;
48881;SDS011;57063;51.406;-2.402;2023-11-21T14:32:08;1.42;;;1.00;;
48881;SDS011;57063;51.406;-2.402;2023-11-21T14:34:34;3.05;;;0.80;;
48881;SDS011;57063;51.406;-2.402;2023-11-21T14:36:59;3.80;;;0.85;;
48881;SDS011;57063;51.406;-2.402;2023-11-21T14:39:27;4.03;;;1.23;;
48881;SDS011;57063;51.406;-2.402;2023-11-21T14:41:53;2.50;;;0.77;;
48881;SDS011;57063;51.406;-2.402;2023-11-21T14:44:21;3.65;;;0.95;;
48881;SDS011;57063;51.406;-2.402;2023-11-21T14:46:51;6.10;;;1.77;;
48881;SDS011;57063;51.406;-2.402;2023-11-21T14:49:17;5.80;;;1.17;;
48881;SDS011;57063;51.406;-2.402;2023-11-21T14:51:51;2.85;;;0.98;;